Forside
METAR-TAF:

METAR-TAF

Lufthavne :

Dubai International Airport

Dubai, Forenede Arabiske Emirater

Breddekreds: 25-15-10N, længdekreds: 055-21-52E, højde: 8 m

Aktuelle vejr

Denne rapport blev lavet for 19 minutter siden, kl. 02:00 UTC
Vind 6 kt fra syd
Temperatur 15°C
Fugtighed 72%
Tryk 1020 hPa
Sigt 10 km eller mere
Brudte skyer i en højde af 4000 ft

METAR: OMDB 210200Z 17006KT 9999 BKN040 15/10 Q1020 NOSIG

Tid: 06:19 (02:19 UTC)

Vejrudsigter

Denne rapport blev lavet for 3 timer og 21 minutter siden, kl. 22:58 UTC
Foreløbig gælder fra 21 på 00 UTC til 22 på 06 UTC
Vind 7 kt fra syd
Sigt 10 km eller mere
Spredte skyer i en højde af 3500 ft
ændring
fra 21 på 09 UTC til 21 på 11 UTC
Vind 10 kt fra nordnordvest
ændring
fra 21 på 18 UTC til 21 på 20 UTC
Vind 5 kt fra syd

TAF: OMDB 202258Z 2100/2206 18007KT 9999 SCT035 BECMG 2109/2111 33010KT BECMG 2118/2120 19005KT

Vejrobservationer og prognoser fra mere end 4000 lufthavne (METAR og TAF).

De gule og røde prikker repræsenterer de meteorologiske stationer.

Flyt musen over at se navnet på stationen.

Så klik over at se vejr observationer og prognoser.

At skifte det kort: Klik på de grønne knapper med et sort kors for at zoome ind; på den grønne knap med en bindestreg for at zoome ud; eller på de grønne pile for tilstødende kort.


METAR-TAF: